Terminal Aerodrome Forecast
Issued by NWS Newport/Morehead City, NC

Home | Current Version | Previous Version | Text Only | Print | Product List | Glossary Off
Versions: 1 2 3 4 5 6 7 8 9 10 11 12 13 14 15

645
FTUS42 KMHX 202328
TAFEWN
TAF
KEWN 202328Z 2100/2124 VRB03KT P6SM SKC
      TEMPO 2110/2111 3SM BR
     FM211200 09003KT P6SM FEW250=

USA.gov is the U.S. government's official web portal to all federal, state and local government web resources and services.